Date,TemperatureHighF,TemperatureAvgF,TemperatureLowF,DewpointHighF,DewpointAvgF,DewpointLowF,HumidityHigh,HumidityAvg,HumidityLow,PressureMaxIn,PressureMinIn,WindSpeedMaxMPH,WindSpeedAvgMPH,GustSpeedMaxMPH,PrecipitationSumIn
2013-1-1,43.2,38.7,35.4,41.9,33.3,-99.9,100,87,76,29.65,29.35,11,5,16,0.00
2013-1-2,42.4,34.1,28.7,30.0,24.2,-99.9,83,72,56,29.68,29.56,10,4,12,0.00
2013-1-3,51.7,37.8,25.2,34.6,25.2,23.0,94,64,36,29.83,29.65,12,4,18,0.00
2013-1-4,55.8,41.9,34.6,33.6,24.1,-99.9,74,54,33,29.85,29.68,6,2,8,0.00
2013-1-5,53.3,43.6,36.2,42.0,32.0,-99.9,90,67,49,29.71,29.53,9,4,13,0.00
2013-1-6,59.2,42.2,28.8,36.5,23.3,-99.9,100,57,26,29.74,29.59,12,5,19,0.00
2013-1-7,54.7,42.1,30.3,32.2,21.6,-99.9,65,47,35,29.71,29.44,12,5,15,0.00
2013-1-8,48.4,45.3,44.8,48.4,37.6,-99.9,100,80,50,29.47,29.32,11,5,16,1.28
2013-1-9,55.4,52.0,47.3,55.4,50.4,-99.9,100,98,100,29.50,29.29,16,8,24,1.54
2013-1-10,63.9,54.1,46.9,60.0,48.0,-99.9,100,85,55,29.35,29.21,14,8,22,0.00
2013-1-11,72.1,57.5,45.7,62.6,48.3,-99.9,97,76,42,29.32,29.09,16,7,24,0.00
2013-1-12,66.7,53.1,35.1,66.7,52.0,-99.9,100,97,88,29.26,29.00,19,8,28,0.45
2013-1-13,45.0,35.1,27.6,32.4,22.3,-99.9,90,62,41,29.62,29.26,19,11,27,0.00
2013-1-14,44.7,33.0,24.8,23.9,17.8,-99.9,76,56,40,29.71,29.53,15,8,20,0.00
2013-1-15,36.9,31.7,28.0,30.5,21.8,-99.9,100,71,61,29.59,29.47,13,7,20,0.04
2013-1-16,56.4,37.6,23.4,26.9,19.4,-99.9,77,52,28,29.62,29.47,12,4,16,0.00
2013-1-17,62.2,45.0,32.7,33.9,25.4,-99.9,67,49,29,29.85,29.56,13,5,20,0.00
2013-1-18,63.3,46.8,35.1,34.9,29.4,-99.9,73,54,33,29.85,29.59,15,6,24,0.00
2013-1-19,66.5,50.2,38.0,43.9,36.4,-99.9,96,64,39,29.62,29.47,12,7,17,0.00
2013-1-20,69.2,55.2,43.6,48.9,41.3,-99.9,93,64,35,29.59,29.38,14,5,18,0.00
2013-1-21,59.7,46.2,35.2,46.3,28.5,-99.9,97,54,35,29.62,29.44,15,7,21,0.00
2013-1-22,69.7,47.4,32.2,44.2,31.0,-99.9,78,57,35,29.65,29.50,12,5,15,0.00
2013-1-23,75.4,59.1,47.3,54.4,47.8,-99.9,98,71,42,29.59,29.44,11,6,17,0.00
2013-1-24,75.3,59.8,53.1,61.1,52.2,-99.9,100,83,50,29.53,29.35,15,7,17,0.00
2013-1-25,56.4,48.0,43.5,56.3,41.2,-99.9,100,83,61,29.56,29.35,14,7,17,0.00
2013-1-26,49.4,46.1,43.3,49.3,44.5,-99.9,100,96,77,29.56,29.44,7,4,13,0.00
2013-1-27,73.6,58.9,46.6,64.7,53.1,-99.9,100,87,61,29.44,29.23,14,8,26,0.00
2013-1-28,75.6,68.1,64.5,65.7,58.9,-99.9,100,79,64,29.35,29.15,16,9,24,0.00
2013-1-29,76.1,64.2,52.9,67.3,57.2,-99.9,96,81,48,29.15,28.76,20,10,33,0.38
2013-1-30,56.6,46.4,36.5,38.3,27.1,-99.9,76,49,29,29.50,29.00,21,9,29,0.00
2013-1-31,69.3,48.9,33.0,33.6,23.0,-99.9,71,42,17,29.68,29.41,21,7,28,0.00